Time;durP1;ratioP1;P1;durP2;ratioP2;P2;SDS_P1;SDS_P2;PMS_P1;PMS_P2;Temp;Humidity;BMP_temperature;BMP_pressure;BME280_temperature;BME280_humidity;BME280_pressure;Samples;Min_cycle;Max_cycle;Signal;HPM_P1;HPM_P2
2021/08/03 00:01:36;;;;;;;8.83;7.92;;;26.60;66.90;;;;;;1886800;76;21048;-55
2021/08/03 00:04:13;;;;;;;9.30;8.38;;;26.50;67.00;;;;;;1886903;76;21103;-54
2021/08/03 00:06:48;;;;;;;8.98;7.83;;;26.60;66.80;;;;;;1886779;76;21033;-55
2021/08/03 00:09:17;;;;;;;;;;;26.50;66.50;;;;;;1889595;76;21138;-54
2021/08/03 00:11:48;;;;;;;8.68;7.80;;;26.50;66.50;;;;;;1886859;75;20105;-55
2021/08/03 00:14:18;;;;;;;8.80;7.95;;;26.50;66.50;;;;;;1886789;76;21123;-54
2021/08/03 00:16:49;;;;;;;10.63;8.20;;;26.50;66.70;;;;;;1886776;76;21030;-54
2021/08/03 00:19:18;;;;;;;8.15;7.35;;;26.50;66.70;;;;;;1886779;76;21065;-55
2021/08/03 00:21:48;;;;;;;9.48;8.53;;;26.50;66.90;;;;;;1886799;76;21076;-55
2021/08/03 00:24:19;;;;;;;9.03;7.50;;;26.50;66.60;;;;;;1886749;76;21387;-55
2021/08/03 00:26:48;;;;;;;12.25;8.10;;;26.50;66.70;;;;;;1886777;76;21464;-55
2021/08/03 00:29:18;;;;;;;11.80;8.80;;;26.40;66.80;;;;;;1886717;76;21147;-55
2021/08/03 00:31:51;;;;;;;9.40;8.25;;;26.40;66.60;;;;;;1886851;75;21130;-55
2021/08/03 00:34:20;;;;;;;9.03;7.58;;;26.40;66.50;;;;;;1886754;76;21037;-55
2021/08/03 00:36:50;;;;;;;10.23;8.60;;;26.40;66.70;;;;;;1886767;76;21029;-54
2021/08/03 00:39:20;;;;;;;9.70;8.33;;;26.40;66.70;;;;;;1886737;76;21033;-54
2021/08/03 00:41:55;;;;;;;9.40;8.48;;;26.30;66.90;;;;;;1886755;76;21025;-54
2021/08/03 00:44:42;;;;;;;8.10;7.37;;;26.30;67.10;;;;;;1885062;76;21033;-55
2021/08/03 00:47:12;;;;;;;10.32;8.40;;;26.30;67.00;;;;;;1886822;76;21057;-54
2021/08/03 00:49:44;;;;;;;9.35;8.40;;;26.20;66.90;;;;;;1886783;76;21124;-55
2021/08/03 00:52:15;;;;;;;12.28;8.70;;;26.20;66.60;;;;;;1886823;76;21107;-54
2021/08/03 00:54:45;;;;;;;8.48;7.53;;;26.10;66.50;;;;;;1886764;76;21029;-54
2021/08/03 00:57:16;;;;;;;10.75;8.30;;;26.00;66.80;;;;;;1886905;76;21052;-54
2021/08/03 00:59:46;;;;;;;9.55;7.78;;;25.90;67.20;;;;;;1886884;76;21099;-55
2021/08/03 01:02:16;;;;;;;12.30;7.92;;;25.90;67.10;;;;;;1887009;76;21181;-55
2021/08/03 01:04:46;;;;;;;8.73;7.72;;;25.80;67.80;;;;;;1886867;75;21103;-55
2021/08/03 01:07:51;;;;;;;9.13;8.00;;;25.80;67.70;;;;;;1886949;76;21101;-54
2021/08/03 01:10:45;;;;;;;9.48;8.10;;;25.80;67.80;;;;;;1886597;76;21081;-53
2021/08/03 01:13:34;;;;;;;10.28;8.13;;;25.80;67.60;;;;;;1859565;76;21005;-53
2021/08/03 01:16:22;;;;;;;11.30;8.60;;;25.90;67.80;;;;;;1886921;76;21025;-53
2021/08/03 01:19:15;;;;;;;10.78;7.80;;;26.00;67.80;;;;;;1886704;76;21184;-54
2021/08/03 01:21:51;;;;;;;10.43;8.28;;;26.00;67.80;;;;;;1886750;76;21068;-54
2021/08/03 01:24:27;;;;;;;10.88;8.40;;;26.00;67.60;;;;;;1886732;76;21539;-54
2021/08/03 01:27:12;;;;;;;10.65;8.60;;;25.90;67.50;;;;;;1886416;76;21061;-54
2021/08/03 01:29:43;;;;;;;9.07;8.20;;;25.90;67.50;;;;;;1887177;76;21123;-54
2021/08/03 01:32:15;;;;;;;8.38;7.58;;;25.80;67.60;;;;;;1859563;76;21021;-55
2021/08/03 01:34:47;;;;;;;9.10;8.05;;;25.70;68.10;;;;;;1886891;76;21116;-54
2021/08/03 01:37:22;;;;;;;9.10;8.15;;;25.60;68.30;;;;;;1859581;76;21100;-54
2021/08/03 01:39:55;;;;;;;8.78;7.87;;;25.60;68.30;;;;;;1886999;76;21459;-55
2021/08/03 01:42:26;;;;;;;9.95;7.78;;;25.70;68.40;;;;;;1886838;76;21464;-54
2021/08/03 01:44:58;;;;;;;10.53;7.78;;;25.70;68.10;;;;;;1886962;76;21005;-55
2021/08/03 01:47:30;;;;;;;11.40;7.67;;;25.70;68.20;;;;;;1887019;76;21025;-55
2021/08/03 01:50:01;;;;;;;12.55;8.15;;;25.70;68.00;;;;;;1886938;76;21082;-54
2021/08/03 01:52:33;;;;;;;8.93;7.35;;;25.70;67.90;;;;;;1886653;76;21210;-55
2021/08/03 01:55:04;;;;;;;9.65;8.30;;;25.70;67.90;;;;;;1886535;76;21074;-55
2021/08/03 01:57:37;;;;;;;14.10;8.28;;;25.80;67.90;;;;;;1885359;76;21528;-54
2021/08/03 02:00:09;;;;;;;8.95;7.78;;;25.70;68.00;;;;;;1886676;76;21089;-54
2021/08/03 02:02:40;;;;;;;10.95;8.23;;;25.70;67.80;;;;;;1885865;76;21075;-55
2021/08/03 02:05:11;;;;;;;9.40;8.20;;;25.70;67.90;;;;;;1886961;76;21170;-53
2021/08/03 02:07:43;;;;;;;9.08;8.23;;;25.70;67.80;;;;;;1885687;76;21143;-55
2021/08/03 02:10:14;;;;;;;9.40;8.45;;;25.60;67.90;;;;;;1886885;76;21080;-54
2021/08/03 02:12:45;;;;;;;14.13;8.50;;;25.50;68.10;;;;;;1886809;75;21063;-55
2021/08/03 02:15:15;;;;;;;9.00;7.80;;;25.40;68.20;;;;;;1886897;76;21033;-55
2021/08/03 02:17:44;;;;;;;8.45;7.65;;;25.40;68.40;;;;;;1886889;76;21033;-55
2021/08/03 02:20:15;;;;;;;8.58;7.70;;;25.50;68.60;;;;;;1885467;76;21078;-54
2021/08/03 02:22:46;;;;;;;9.93;7.72;;;25.50;68.40;;;;;;1886280;76;21066;-55
2021/08/03 02:25:24;;;;;;;10.95;8.98;;;25.50;68.20;;;;;;1886275;76;21090;-55
2021/08/03 02:27:56;;;;;;;14.83;7.83;;;25.50;67.90;;;;;;1886850;76;21112;-54
2021/08/03 02:30:26;;;;;;;14.00;7.78;;;25.50;68.00;;;;;;1859632;76;21554;-54
2021/08/03 02:32:59;;;;;;;11.30;8.88;;;25.50;68.30;;;;;;1886637;76;21159;-54
2021/08/03 02:35:31;;;;;;;14.78;8.45;;;25.40;68.30;;;;;;1878909;76;21545;-54
2021/08/03 02:38:03;;;;;;;9.60;8.20;;;25.50;68.60;;;;;;1886964;76;21479;-54
2021/08/03 02:40:34;;;;;;;10.15;8.00;;;25.50;68.70;;;;;;1886220;76;21315;-53
2021/08/03 02:43:05;;;;;;;16.95;8.75;;;25.60;68.60;;;;;;1886238;76;21069;-54
2021/08/03 02:45:34;;;;;;;10.30;8.53;;;25.60;68.40;;;;;;1886931;76;21069;-54
2021/08/03 02:48:15;;;;;;;9.70;8.73;;;25.70;68.30;;;;;;1886783;76;21037;-52
2021/08/03 02:50:46;;;;;;;9.58;8.50;;;25.70;68.00;;;;;;1885801;76;21131;-54
2021/08/03 02:53:17;;;;;;;9.38;8.13;;;25.60;68.10;;;;;;1886884;76;21038;-52
2021/08/03 02:55:50;;;;;;;11.63;8.08;;;25.60;68.20;;;;;;1886962;76;21069;-54
2021/08/03 02:58:24;;;;;;;17.87;9.45;;;25.70;68.20;;;;;;1886937;76;21115;-54
2021/08/03 03:00:54;;;;;;;21.33;9.45;;;25.70;67.70;;;;;;1886887;76;21029;-54
2021/08/03 03:03:26;;;;;;;13.13;10.10;;;25.70;67.50;;;;;;1886922;76;21009;-53
2021/08/03 03:06:01;;;;;;;16.15;9.13;;;25.70;67.40;;;;;;1886968;76;21041;-54
2021/08/03 03:08:34;;;;;;;15.23;9.08;;;25.60;67.50;;;;;;1886124;76;21070;-54
2021/08/03 03:11:07;;;;;;;12.40;8.63;;;25.50;67.60;;;;;;1886875;76;21057;-54
2021/08/03 03:13:42;;;;;;;12.53;9.15;;;25.50;67.60;;;;;;1891657;74;21072;-54
2021/08/03 03:16:15;;;;;;;12.68;8.20;;;25.50;67.80;;;;;;1893374;76;21029;-54
2021/08/03 03:18:45;;;;;;;11.55;8.68;;;25.50;67.90;;;;;;1893215;76;21188;-53
2021/08/03 03:21:20;;;;;;;9.98;8.68;;;25.60;67.90;;;;;;1893367;76;21028;-54
2021/08/03 03:23:52;;;;;;;;;;;25.70;67.70;;;;;;1896136;76;21001;-54
2021/08/03 03:26:27;;;;;;;10.68;8.88;;;25.80;67.30;;;;;;1893363;76;20160;-54
2021/08/03 03:28:57;;;;;;;12.53;8.73;;;25.80;67.20;;;;;;1893317;76;21119;-53
2021/08/03 03:31:30;;;;;;;9.68;8.23;;;25.80;67.20;;;;;;1893252;76;21021;-54
2021/08/03 03:34:04;;;;;;;26.12;10.08;;;25.80;67.30;;;;;;1892709;76;21447;-54
2021/08/03 03:36:35;;;;;;;8.55;7.75;;;25.90;67.40;;;;;;1893485;76;21452;-54
2021/08/03 03:39:06;;;;;;;12.85;8.43;;;26.00;67.30;;;;;;1893260;76;21087;-54
2021/08/03 03:41:37;;;;;;;12.07;8.05;;;26.10;67.10;;;;;;1893381;76;21502;-54
2021/08/03 03:44:08;;;;;;;15.50;10.60;;;26.20;67.00;;;;;;1893289;76;21077;-53
2021/08/03 03:46:44;;;;;;;19.52;17.45;;;26.30;66.90;;;;;;1893361;76;21004;-54
2021/08/03 03:49:16;;;;;;;15.00;13.43;;;26.40;66.70;;;;;;1893306;76;21096;-54
2021/08/03 03:51:47;;;;;;;14.93;13.13;;;26.60;66.50;;;;;;1893447;76;21121;-54
2021/08/03 03:54:29;;;;;;;16.10;11.83;;;26.70;66.30;;;;;;1892923;76;21114;-54
2021/08/03 03:57:02;;;;;;;14.25;8.83;;;26.80;66.20;;;;;;1893418;76;21057;-54
2021/08/03 03:59:34;;;;;;;14.97;9.83;;;26.90;65.90;;;;;;1893683;76;21053;-54
2021/08/03 04:02:06;;;;;;;10.95;9.75;;;27.00;65.30;;;;;;1893233;76;21099;-54
2021/08/03 04:04:42;;;;;;;15.15;10.75;;;27.00;65.10;;;;;;1893421;76;21041;-54
2021/08/03 04:07:11;;;;;;;13.38;11.18;;;27.00;65.10;;;;;;1893230;76;21060;-52
2021/08/03 04:09:41;;;;;;;11.25;9.10;;;27.00;65.10;;;;;;1893288;76;21076;-53
2021/08/03 04:12:12;;;;;;;9.98;9.00;;;27.10;65.30;;;;;;1892048;75;21037;-55
2021/08/03 04:14:44;;;;;;;11.83;8.40;;;27.20;65.40;;;;;;1887217;76;21037;-54
2021/08/03 04:17:15;;;;;;;12.90;9.03;;;27.30;65.10;;;;;;1886734;76;21049;-54
2021/08/03 04:19:45;;;;;;;16.37;10.50;;;27.40;64.80;;;;;;1886820;76;21006;-54
2021/08/03 04:22:15;;;;;;;13.62;9.48;;;27.60;64.70;;;;;;1886680;76;21099;-54
2021/08/03 04:24:44;;;;;;;13.28;9.13;;;27.70;64.50;;;;;;1886682;76;21095;-54
2021/08/03 04:27:13;;;;;;;13.70;10.58;;;27.80;64.40;;;;;;1886617;76;21033;-54
2021/08/03 04:29:43;;;;;;;10.95;8.10;;;27.90;64.30;;;;;;1886841;76;21054;-54
2021/08/03 04:32:13;;;;;;;11.85;7.62;;;28.10;64.00;;;;;;1886859;76;21037;-54
2021/08/03 04:34:42;;;;;;;14.25;8.15;;;28.20;63.80;;;;;;1886807;76;21159;-55
2021/08/03 04:37:12;;;;;;;12.98;9.28;;;28.30;63.70;;;;;;1886788;76;21033;-54
2021/08/03 04:39:41;;;;;;;18.02;8.98;;;28.40;63.40;;;;;;1886903;76;21085;-54
2021/08/03 04:42:11;;;;;;;9.90;8.10;;;28.60;63.30;;;;;;1886885;75;21093;-54
2021/08/03 04:44:40;;;;;;;13.75;7.37;;;28.60;63.30;;;;;;1886846;76;21103;-54
2021/08/03 04:47:09;;;;;;;13.43;8.23;;;28.70;63.20;;;;;;1886932;76;21034;-54
2021/08/03 04:49:39;;;;;;;12.82;7.97;;;28.70;63.00;;;;;;1886976;76;21014;-54
2021/08/03 04:52:09;;;;;;;12.75;8.00;;;28.80;62.90;;;;;;1886792;76;21102;-54
2021/08/03 04:54:39;;;;;;;11.48;8.45;;;28.90;62.60;;;;;;1886774;76;21163;-54
2021/08/03 04:57:09;;;;;;;20.05;8.63;;;28.90;62.50;;;;;;1886812;76;21061;-54
2021/08/03 04:59:38;;;;;;;13.93;8.58;;;29.00;61.80;;;;;;1886962;76;21091;-54
2021/08/03 05:02:08;;;;;;;11.25;7.42;;;29.10;62.00;;;;;;1886892;76;21500;-54
2021/08/03 05:04:37;;;;;;;15.48;7.85;;;29.20;61.40;;;;;;1886764;76;21140;-54
2021/08/03 05:07:07;;;;;;;9.68;7.60;;;29.30;62.00;;;;;;1886817;76;21029;-54
2021/08/03 05:09:36;;;;;;;9.73;7.08;;;29.30;62.10;;;;;;1886786;76;21111;-54
2021/08/03 05:12:06;;;;;;;9.33;7.55;;;29.40;62.00;;;;;;1886880;76;21115;-54
2021/08/03 05:14:35;;;;;;;9.73;7.50;;;29.40;61.60;;;;;;1886857;74;21061;-54
2021/08/03 05:17:05;;;;;;;62.98;10.98;;;29.40;61.40;;;;;;1886664;76;21065;-54
2021/08/03 05:19:34;;;;;;;11.70;8.60;;;29.60;62.20;;;;;;1886684;76;21025;-54
2021/08/03 05:22:03;;;;;;;9.00;6.85;;;29.60;61.50;;;;;;1886801;76;21099;-54
2021/08/03 05:24:33;;;;;;;8.15;7.15;;;29.70;61.10;;;;;;1886742;76;21014;-54
2021/08/03 05:27:02;;;;;;;14.13;7.97;;;29.80;60.70;;;;;;1886682;75;21056;-54
2021/08/03 05:29:32;;;;;;;12.50;6.95;;;29.90;60.50;;;;;;1886649;76;21029;-54
2021/08/03 05:32:01;;;;;;;14.25;7.60;;;30.00;59.60;;;;;;1886712;76;21080;-54
2021/08/03 05:34:30;;;;;;;11.48;7.15;;;30.10;58.40;;;;;;1886708;76;21052;-54
2021/08/03 05:37:01;;;;;;;10.08;6.12;;;30.20;57.50;;;;;;1886761;76;21049;-54
2021/08/03 05:39:30;;;;;;;8.28;6.08;;;30.30;56.10;;;;;;1886748;76;21483;-54
2021/08/03 05:42:00;;;;;;;9.85;6.20;;;30.50;54.80;;;;;;1886720;76;21009;-54
2021/08/03 05:44:29;;;;;;;8.13;5.78;;;30.60;53.50;;;;;;1886907;76;21080;-54
2021/08/03 05:46:59;;;;;;;8.23;5.83;;;30.70;52.20;;;;;;1886926;76;21123;-54
2021/08/03 05:49:29;;;;;;;11.78;5.80;;;30.80;51.50;;;;;;1886741;76;21054;-54
2021/08/03 05:52:00;;;;;;;7.37;5.55;;;30.90;50.80;;;;;;1886718;76;21029;-54
2021/08/03 05:54:30;;;;;;;8.68;5.40;;;31.00;49.90;;;;;;1886759;76;21091;-54
2021/08/03 05:56:59;;;;;;;6.12;5.20;;;31.10;48.90;;;;;;1886882;76;21029;-54
2021/08/03 05:59:29;;;;;;;6.85;5.35;;;31.20;48.20;;;;;;1886801;75;21106;-54
2021/08/03 06:01:58;;;;;;;9.03;6.40;;;31.20;47.80;;;;;;1886790;76;21033;-54
2021/08/03 06:04:28;;;;;;;7.10;4.90;;;31.30;47.30;;;;;;1886803;76;21053;-54
2021/08/03 06:06:59;;;;;;;10.88;5.70;;;31.40;47.00;;;;;;1886829;76;21123;-54
2021/08/03 06:09:29;;;;;;;12.03;6.03;;;31.50;46.60;;;;;;1886898;76;21033;-55
2021/08/03 06:12:00;;;;;;;7.33;5.25;;;31.50;46.40;;;;;;1886828;75;21045;-55
2021/08/03 06:14:44;;;;;;;5.28;4.78;;;31.50;43.90;;;;;;1889050;75;21048;-55
2021/08/03 06:17:15;;;;;;;7.35;5.08;;;31.60;43.60;;;;;;1893477;76;21028;-55
2021/08/03 06:19:46;;;;;;;10.65;4.70;;;31.60;43.80;;;;;;1893450;76;21533;-55
2021/08/03 06:22:17;;;;;;;8.28;7.20;;;31.70;43.50;;;;;;1893332;76;21025;-55
2021/08/03 06:24:50;;;;;;;8.03;5.80;;;31.80;44.00;;;;;;1893409;76;21064;-56
2021/08/03 06:27:20;;;;;;;9.38;5.45;;;31.80;43.70;;;;;;1893527;76;21041;-55
2021/08/03 06:29:51;;;;;;;7.83;5.55;;;31.90;43.80;;;;;;1893328;76;21041;-55
2021/08/03 06:32:22;;;;;;;10.58;5.47;;;32.00;43.40;;;;;;1893328;76;21029;-55
2021/08/03 06:34:51;;;;;;;6.97;4.67;;;32.00;42.60;;;;;;1893463;76;21096;-55
2021/08/03 06:37:21;;;;;;;7.80;6.40;;;32.10;42.70;;;;;;1892383;76;21096;-52
2021/08/03 06:39:50;;;;;;;5.67;4.42;;;32.10;43.40;;;;;;1891019;76;21451;-53
2021/08/03 06:42:35;;;;;;;7.50;5.28;;;32.10;42.20;;;;;;1892270;76;21212;-53
2021/08/03 06:45:07;;;;;;;10.70;5.37;;;32.20;42.20;;;;;;1893064;76;21145;-55
2021/08/03 06:47:45;;;;;;;8.28;5.45;;;32.20;42.40;;;;;;1892935;76;21036;-55
2021/08/03 06:50:17;;;;;;;11.18;5.90;;;32.30;42.50;;;;;;1892842;76;21082;-55
2021/08/03 06:52:48;;;;;;;10.40;5.72;;;32.40;42.50;;;;;;1892907;76;21447;-55
2021/08/03 06:55:20;;;;;;;12.88;5.55;;;32.40;42.40;;;;;;1893057;76;21090;-55
2021/08/03 06:57:52;;;;;;;17.40;6.00;;;32.40;42.10;;;;;;1892698;76;21032;-55
2021/08/03 07:00:23;;;;;;;10.80;6.42;;;32.50;42.20;;;;;;1892949;76;21470;-55
2021/08/03 07:02:54;;;;;;;8.40;5.30;;;32.60;42.10;;;;;;1893124;76;21090;-55
2021/08/03 07:05:28;;;;;;;10.65;5.75;;;32.70;42.20;;;;;;1893111;76;21016;-55
2021/08/03 07:07:59;;;;;;;12.15;5.90;;;32.80;42.00;;;;;;1893031;76;21094;-55
2021/08/03 07:10:29;;;;;;;10.90;4.90;;;32.90;42.00;;;;;;1892388;76;21067;-56
2021/08/03 07:13:00;;;;;;;7.83;5.87;;;32.90;41.80;;;;;;1892575;76;21071;-56
2021/08/03 07:15:30;;;;;;;9.53;5.40;;;33.00;41.60;;;;;;1889545;75;21111;-56
2021/08/03 07:18:01;;;;;;;9.30;5.40;;;33.00;41.60;;;;;;1886656;76;21181;-56
2021/08/03 07:20:31;;;;;;;6.40;4.95;;;33.00;41.70;;;;;;1886541;76;21008;-56
2021/08/03 07:23:02;;;;;;;7.28;5.45;;;33.00;41.70;;;;;;1886579;76;21231;-54
2021/08/03 07:25:32;;;;;;;8.20;5.20;;;33.10;41.70;;;;;;1886500;76;21040;-55
2021/08/03 07:28:02;;;;;;;9.53;5.65;;;33.20;41.80;;;;;;1886522;76;21048;-53
2021/08/03 07:30:31;;;;;;;10.82;5.42;;;33.20;41.60;;;;;;1886538;76;20996;-53
2021/08/03 07:33:01;;;;;;;10.93;5.08;;;33.20;41.50;;;;;;1886454;76;21012;-56
2021/08/03 07:35:30;;;;;;;9.03;5.10;;;33.30;41.40;;;;;;1886525;76;21012;-56
2021/08/03 07:38:00;;;;;;;10.08;5.62;;;33.30;41.30;;;;;;1886185;76;21064;-56
2021/08/03 07:40:29;;;;;;;16.50;5.90;;;33.40;41.20;;;;;;1886277;76;21017;-56
2021/08/03 07:42:59;;;;;;;7.45;5.17;;;33.40;40.50;;;;;;1886427;76;21627;-57
2021/08/03 07:45:28;;;;;;;6.72;4.78;;;33.40;40.20;;;;;;1886116;76;21012;-55
2021/08/03 07:47:58;;;;;;;9.78;5.08;;;33.40;40.00;;;;;;1886714;76;21071;-55
2021/08/03 07:50:28;;;;;;;33.85;7.45;;;33.50;39.80;;;;;;1886503;76;21317;-56
2021/08/03 07:52:59;;;;;;;91.17;11.08;;;33.60;40.00;;;;;;1886536;76;21012;-55
2021/08/03 07:55:28;;;;;;;5.87;5.17;;;33.60;40.00;;;;;;1886446;76;21012;-52
2021/08/03 07:57:57;;;;;;;5.58;5.08;;;33.80;39.60;;;;;;1886285;76;21078;-49
2021/08/03 08:00:27;;;;;;;10.13;4.87;;;33.80;39.10;;;;;;1884760;76;21047;-49
2021/08/03 08:02:56;;;;;;;6.65;5.15;;;33.80;38.50;;;;;;1885915;76;21055;-51
2021/08/03 08:05:26;;;;;;;6.25;4.40;;;33.80;38.40;;;;;;1886047;76;21129;-49
2021/08/03 08:07:58;;;;;;;11.63;5.20;;;33.80;38.10;;;;;;1885951;76;21146;-51
2021/08/03 08:10:26;;;;;;;11.83;5.70;;;33.80;38.00;;;;;;1885992;76;21091;-51
2021/08/03 08:12:56;;;;;;;9.20;4.87;;;33.90;37.70;;;;;;1886084;76;21029;-53
2021/08/03 08:15:26;;;;;;;8.35;4.92;;;33.90;37.60;;;;;;1886036;75;21048;-52
2021/08/03 08:17:55;;;;;;;5.80;4.90;;;34.00;37.50;;;;;;1885740;76;21063;-51
2021/08/03 08:20:24;;;;;;;8.93;4.80;;;34.10;36.90;;;;;;1868769;76;21087;-52
2021/08/03 08:22:54;;;;;;;6.28;4.62;;;34.10;36.90;;;;;;1862397;77;21199;-51
2021/08/03 08:25:23;;;;;;;14.58;4.80;;;34.10;36.70;;;;;;1862175;77;21071;-50
2021/08/03 08:27:59;;;;;;;6.08;4.60;;;34.10;36.20;;;;;;1868765;76;21065;-49
2021/08/03 08:30:39;;;;;;;9.93;6.65;;;34.20;36.00;;;;;;1885988;76;21099;-52
2021/08/03 08:33:24;;;;;;;6.28;4.75;;;34.20;36.00;;;;;;1862269;76;21547;-50
2021/08/03 08:36:05;;;;;;;12.23;4.78;;;34.30;35.70;;;;;;1861454;77;21189;-49
2021/08/03 08:38:51;;;;;;;6.58;5.95;;;34.30;35.30;;;;;;1861873;77;21108;-47
2021/08/03 08:41:31;;;;;;;9.95;4.78;;;34.40;35.00;;;;;;1861931;76;21028;-46
2021/08/03 08:44:08;;;;;;;12.60;9.00;;;34.40;35.10;;;;;;1862090;77;21133;-48
2021/08/03 08:46:46;;;;;;;15.68;6.90;;;34.50;35.20;;;;;;1862127;77;21137;-49
2021/08/03 08:49:18;;;;;;;11.38;5.97;;;34.50;35.30;;;;;;1864915;76;21510;-52
2021/08/03 08:51:48;;;;;;;9.63;5.28;;;34.60;35.40;;;;;;1882189;76;21009;-52
2021/08/03 08:54:17;;;;;;;9.38;5.53;;;34.70;35.00;;;;;;1894464;76;21009;-48
2021/08/03 08:56:46;;;;;;;10.45;5.85;;;34.70;35.10;;;;;;1894782;76;21036;-48
2021/08/03 08:59:16;;;;;;;9.38;5.70;;;34.80;35.20;;;;;;1894642;76;21037;-51
2021/08/03 09:01:45;;;;;;;9.23;6.10;;;34.90;35.30;;;;;;1894559;76;21091;-51
2021/08/03 09:04:16;;;;;;;8.73;5.60;;;34.90;35.20;;;;;;1894748;76;21135;-51
2021/08/03 09:06:48;;;;;;;11.28;5.42;;;34.90;35.10;;;;;;1894390;76;21112;-49
2021/08/03 09:09:19;;;;;;;6.08;5.15;;;35.00;35.70;;;;;;1889804;76;21752;-48
2021/08/03 09:11:48;;;;;;;10.13;6.05;;;35.00;35.40;;;;;;1894238;76;21112;-50
2021/08/03 09:14:26;;;;;;;11.88;9.23;;;35.00;35.70;;;;;;1894753;76;21033;-47
2021/08/03 09:16:56;;;;;;;6.83;5.33;;;35.00;35.60;;;;;;1871229;76;21047;-49
2021/08/03 09:19:35;;;;;;;7.87;5.40;;;35.10;35.50;;;;;;1874422;76;21099;-50
2021/08/03 09:22:13;;;;;;;7.42;5.35;;;35.10;35.40;;;;;;1874514;76;21023;-47
2021/08/03 09:24:45;;;;;;;8.83;5.75;;;35.20;36.10;;;;;;1874552;76;21176;-52
2021/08/03 09:27:37;;;;;;;8.58;5.92;;;35.30;36.20;;;;;;1874370;76;21100;-51
2021/08/03 09:30:09;;;;;;;8.65;5.33;;;35.30;35.40;;;;;;1874460;76;21142;-53
2021/08/03 09:32:39;;;;;;;10.95;5.67;;;35.40;35.40;;;;;;1873637;76;21118;-50
2021/08/03 09:35:13;;;;;;;10.18;5.85;;;35.40;35.90;;;;;;1874198;76;21091;-51
2021/08/03 09:37:42;;;;;;;;;;;35.50;35.70;;;;;;1876876;76;21196;-48
2021/08/03 09:40:29;;;;;;;17.07;6.08;;;35.50;35.00;;;;;;1874493;76;20155;-49
2021/08/03 09:43:06;;;;;;;8.28;5.42;;;35.50;36.20;;;;;;1874314;76;21110;-51
2021/08/03 09:45:38;;;;;;;6.67;5.50;;;35.50;36.80;;;;;;1874243;76;21015;-50
2021/08/03 09:48:13;;;;;;;9.65;6.17;;;35.40;36.00;;;;;;1870680;76;21062;-48
2021/08/03 09:51:00;;;;;;;8.15;5.20;;;35.50;36.30;;;;;;1874406;76;21534;-50
2021/08/03 09:53:40;;;;;;;12.55;5.75;;;35.50;36.40;;;;;;1874349;76;21004;-49
2021/08/03 09:56:12;;;;;;;10.58;5.75;;;35.50;36.40;;;;;;1880362;76;21090;-48
2021/08/03 09:58:56;;;;;;;8.55;5.45;;;35.60;36.40;;;;;;1888268;76;21013;-47
2021/08/03 10:01:30;;;;;;;8.95;6.03;;;35.60;36.00;;;;;;1886316;76;21171;-49
2021/08/03 10:04:02;;;;;;;5.87;5.17;;;35.60;36.60;;;;;;1889011;76;21024;-47
2021/08/03 10:06:33;;;;;;;13.62;5.25;;;35.50;36.40;;;;;;1887382;76;21072;-47
2021/08/03 10:09:03;;;;;;;7.17;5.08;;;35.70;36.10;;;;;;1888294;76;21033;-48
2021/08/03 10:11:32;;;;;;;14.53;6.20;;;35.70;35.60;;;;;;1888373;76;21154;-48
2021/08/03 10:14:02;;;;;;;12.07;5.28;;;35.70;35.80;;;;;;1888520;76;21104;-51
2021/08/03 10:16:31;;;;;;;12.28;5.87;;;35.70;36.20;;;;;;1885132;74;21073;-53
2021/08/03 10:19:02;;;;;;;7.15;5.53;;;35.70;36.40;;;;;;1890761;76;21086;-52
2021/08/03 10:21:39;;;;;;;17.37;5.87;;;35.80;37.00;;;;;;1885832;76;21130;-54
2021/08/03 10:24:21;;;;;;;8.35;5.60;;;35.80;36.70;;;;;;1896875;75;21029;-49
2021/08/03 10:27:11;;;;;;;6.75;5.50;;;35.90;37.10;;;;;;1867547;75;21103;-58
2021/08/03 10:29:54;;;;;;;9.15;5.92;;;35.90;37.00;;;;;;1875483;75;21171;-56
2021/08/03 10:32:40;;;;;;;14.63;5.67;;;35.90;37.30;;;;;;1865451;75;21164;-55
2021/08/03 10:35:18;;;;;;;8.10;6.00;;;35.90;37.40;;;;;;1879247;75;21024;-55
2021/08/03 10:38:06;;;;;;;7.90;6.12;;;36.00;37.40;;;;;;1874212;75;21043;-54
2021/08/03 10:40:57;;;;;;;9.93;5.60;;;36.10;37.40;;;;;;1879696;75;21335;-55
2021/08/03 10:43:31;;;;;;;9.40;5.55;;;36.10;37.30;;;;;;1872067;75;21001;-53
2021/08/03 10:46:12;;;;;;;9.30;5.25;;;36.10;37.60;;;;;;1868604;77;21498;-54
2021/08/03 10:48:43;;;;;;;13.20;5.80;;;36.10;37.80;;;;;;1871864;75;21008;-55
2021/08/03 10:51:19;;;;;;;8.93;6.33;;;36.10;38.10;;;;;;1877194;75;21081;-56
2021/08/03 10:54:08;;;;;;;11.68;5.92;;;36.10;38.00;;;;;;1875495;75;21056;-56
2021/08/03 10:56:57;;;;;;;8.85;6.58;;;36.10;37.90;;;;;;1870797;75;21146;-48
2021/08/03 10:59:40;;;;;;;13.53;7.12;;;35.90;38.00;;;;;;1885427;75;21219;-49
2021/08/03 11:02:27;;;;;;;8.10;5.80;;;35.70;38.30;;;;;;1883008;75;21079;-48
2021/08/03 11:05:00;;;;;;;9.45;6.95;;;35.70;38.50;;;;;;1882799;75;21056;-49
2021/08/03 11:07:31;;;;;;;12.68;6.05;;;35.50;38.60;;;;;;1879914;75;21039;-49
2021/08/03 11:10:06;;;;;;;8.65;5.65;;;35.40;38.80;;;;;;1874413;75;21172;-49
2021/08/03 11:12:51;;;;;;;12.37;5.90;;;35.40;39.10;;;;;;1873928;75;21013;-51
2021/08/03 11:15:27;;;;;;;12.73;6.35;;;35.30;39.20;;;;;;1868327;76;21100;-51
2021/08/03 11:17:59;;;;;;;8.28;5.97;;;35.20;39.80;;;;;;1878999;76;21108;-53
2021/08/03 11:20:39;;;;;;;8.18;5.80;;;35.10;40.30;;;;;;1875188;76;21075;-52
2021/08/03 11:23:17;;;;;;;14.95;6.28;;;35.00;40.20;;;;;;1874456;75;21016;-50
2021/08/03 11:25:48;;;;;;;21.68;7.40;;;35.00;40.60;;;;;;1879891;76;21042;-54
2021/08/03 11:28:22;;;;;;;8.20;6.22;;;35.00;41.30;;;;;;1864199;77;21045;-51
2021/08/03 11:30:51;;;;;;;;;;;34.90;42.00;;;;;;1867270;76;21088;-49
2021/08/03 11:33:22;;;;;;;13.28;11.25;;;34.80;42.40;;;;;;1877836;75;20159;-54
2021/08/03 11:35:51;;;;;;;10.98;6.60;;;34.70;42.50;;;;;;1881191;75;21133;-49
2021/08/03 11:38:22;;;;;;;8.20;5.92;;;34.70;43.10;;;;;;1880081;75;21164;-51
2021/08/03 11:40:55;;;;;;;8.15;6.20;;;34.60;43.50;;;;;;1874622;75;21066;-52
2021/08/03 11:43:28;;;;;;;7.40;6.50;;;34.60;44.00;;;;;;1868234;76;21081;-52
2021/08/03 11:45:58;;;;;;;7.33;6.25;;;34.70;44.50;;;;;;1866591;76;21008;-51
2021/08/03 11:48:29;;;;;;;9.68;7.05;;;34.90;44.80;;;;;;1885765;76;21063;-50
2021/08/03 11:50:58;;;;;;;8.43;6.08;;;34.90;43.60;;;;;;1882523;75;21526;-49
2021/08/03 11:53:30;;;;;;;12.23;6.55;;;35.10;44.40;;;;;;1885607;76;21008;-49
2021/08/03 11:56:00;;;;;;;14.00;7.10;;;35.10;44.40;;;;;;1868620;75;21584;-51
2021/08/03 11:58:37;;;;;;;9.08;7.12;;;35.10;44.40;;;;;;1870630;77;21103;-51
2021/08/03 12:01:05;;;;;;;13.62;7.17;;;35.20;44.60;;;;;;1867867;77;21177;-55
2021/08/03 12:03:41;;;;;;;7.03;6.25;;;35.20;44.70;;;;;;1868838;75;21474;-55
2021/08/03 12:06:07;;;;;;;10.80;5.92;;;35.20;44.50;;;;;;1872250;75;21107;-54
2021/08/03 12:08:39;;;;;;;12.03;7.03;;;35.10;44.60;;;;;;1892228;75;21020;-55
2021/08/03 12:11:08;;;;;;;15.15;7.03;;;35.00;45.00;;;;;;1884179;75;21016;-55
2021/08/03 12:13:38;;;;;;;12.43;6.78;;;35.00;45.00;;;;;;1881500;75;21098;-55
2021/08/03 12:16:08;;;;;;;13.75;7.17;;;35.00;44.80;;;;;;1863176;75;21098;-55
2021/08/03 12:18:39;;;;;;;13.55;7.10;;;35.00;44.40;;;;;;1873902;74;21055;-54
2021/08/03 12:21:09;;;;;;;12.13;6.47;;;35.00;45.10;;;;;;1876822;74;21122;-54
2021/08/03 12:23:40;;;;;;;11.73;7.10;;;35.00;44.70;;;;;;1876118;74;21158;-55
2021/08/03 12:26:21;;;;;;;13.70;7.25;;;35.00;45.10;;;;;;1888522;74;21016;-54
2021/08/03 12:28:56;;;;;;;12.63;7.72;;;34.80;45.30;;;;;;1882339;74;21204;-53
2021/08/03 12:31:33;;;;;;;15.50;7.15;;;34.70;46.40;;;;;;1876764;74;21569;-55
2021/08/03 12:34:15;;;;;;;19.07;7.75;;;34.60;46.00;;;;;;1877911;74;21097;-51
2021/08/03 12:36:52;;;;;;;13.60;7.75;;;34.50;46.20;;;;;;1873735;76;21043;-51
2021/08/03 12:39:36;;;;;;;12.43;6.95;;;34.40;46.40;;;;;;1874648;76;20988;-50
2021/08/03 12:42:06;;;;;;;8.25;6.58;;;34.40;46.30;;;;;;1873499;76;21095;-52
2021/08/03 12:44:38;;;;;;;13.83;7.60;;;34.30;46.40;;;;;;1875002;76;21032;-53
2021/08/03 12:47:20;;;;;;;9.85;6.37;;;34.30;46.80;;;;;;1875092;76;21020;-52
2021/08/03 12:49:51;;;;;;;14.28;7.70;;;34.30;46.80;;;;;;1875034;76;21105;-52
2021/08/03 12:52:25;;;;;;;15.60;7.05;;;34.20;46.80;;;;;;1875115;76;21106;-51
2021/08/03 12:55:00;;;;;;;;;;;34.20;46.80;;;;;;1877032;76;21114;-51
2021/08/03 12:57:48;;;;;;;8.98;6.03;;;34.20;46.70;;;;;;1874242;76;20178;-52
2021/08/03 13:00:32;;;;;;;12.03;6.78;;;34.20;46.60;;;;;;1874320;76;21032;-51
2021/08/03 13:03:03;;;;;;;16.03;7.17;;;34.20;46.70;;;;;;1855822;76;21173;-51
2021/08/03 13:05:32;;;;;;;11.85;6.55;;;34.20;46.40;;;;;;1842202;76;21106;-51
2021/08/03 13:08:01;;;;;;;15.83;7.75;;;34.20;46.30;;;;;;1874272;76;21149;-50
2021/08/03 13:10:31;;;;;;;12.05;7.67;;;34.20;46.50;;;;;;1874790;76;21493;-51
2021/08/03 13:13:00;;;;;;;15.15;7.17;;;34.10;46.20;;;;;;1875205;76;21032;-52